Flight Track Log - Related Links

Times and Time Zones

All times are in EDT time to prevent confusion due to time zone crossing. See the SKW6345 flight status page for this flight to view local times or setup timezone preferences in your user account.

Time Position Orientation Groundspeed Altitude Reporting Facility
EDT Latitude Longitude Course Direction KTS MPH feet Rate Location/Type
Sun 09:32:49 AM 44.5369 -109.0017 159° South 165 190 6,100  Level Salt Lake Center
Sun 09:33:50 AM 44.5333 -108.9339 94° East 198 228 7,900 2,361 Climbing Salt Lake Center
Sun 09:34:00 AM 44.5168 -108.9046 159° South  Level FlightAware Approximate
Sun 09:34:51 AM 44.4647 -108.8786 150° Southeast 245 282 10,900  Level Salt Lake Center
Sun 09:35:00 AM 44.4158 -108.8494 154° Southeast  Level FlightAware Approximate
Sun 09:35:52 AM 44.3956 -108.8389 158° South 264 304 13,400  Level Salt Lake Center
Sun 09:36:00 AM 44.3179 -108.7842 154° Southeast  Level FlightAware Approximate
Sun 09:36:53 AM 44.3211 -108.7928 156° South 291 335 15,100  Level Salt Lake Center
Sun 09:37:00 AM 44.2189 -108.7227 158° South  Level FlightAware Approximate
Sun 09:37:54 AM 44.2258 -108.7372 157° South 322 371 17,600  Level Salt Lake Center
Sun 09:38:00 AM 44.1184 -108.6660 159° South  Level FlightAware Approximate
Sun 09:38:54 AM 44.1422 -108.6903 158° South 334 384 19,200  Level Salt Lake Center
Sun 09:39:55 AM 44.0550 -108.6400 157° South 347 399 20,400 1,279 Climbing Salt Lake Center
Sun 09:40:56 AM 43.9458 -108.5758 157° South 377 434 21,800 1,033 Climbing Salt Lake Center
Sun 09:41:57 AM 43.8547 -108.5047 151° Southeast 396 456 22,500 738 Climbing Salt Lake Center
Sun 09:42:58 AM 43.7464 -108.3983 145° Southeast 426 490 23,300 738 Climbing Salt Lake Center
Sun 09:43:59 AM 43.6506 -108.3069 145° Southeast 438 504 24,000 738 Climbing Salt Lake Center
Sun 09:45:00 AM 43.5542 -108.2114 144° Southeast 445 512 24,800 843 Climbing Salt Lake Center
Sun 09:46:00 AM 43.4400 -108.0992 144° Southeast 451 519 25,700 793 Climbing Salt Lake Center
Sun 09:47:01 AM 43.3417 -108.0033 145° Southeast 454 522 26,400 738 Climbing Salt Lake Center
Sun 09:48:02 AM 43.2428 -107.9075 145° Southeast 453 521 27,200 836 Climbing Salt Lake Center
Sun 09:49:03 AM 43.1275 -107.7961 145° Southeast 455 524 28,100 787 Climbing Salt Lake Center
Sun 09:50:04 AM 43.0300 -107.7031 145° Southeast 448 516 28,800 639 Climbing Salt Lake Center
Sun 09:51:05 AM 42.9247 -107.6022 145° Southeast 451 519 29,400 558 Climbing Salt Lake Center
Sun 09:51:30 AM 42.8756 -107.5539 144° Southeast 452 520 29,600 492 Climbing Denver Center
Sun 09:52:06 AM 42.8256 -107.5069 145° Southeast 454 522 29,900 495 Climbing Salt Lake Center
Sun 09:53:07 AM 42.7086 -107.3972 145° Southeast 457 526 30,400 492 Climbing Salt Lake Center
Sun 09:54:08 AM 42.6094 -107.3019 145° Southeast 456 525 30,900 419 Climbing Salt Lake Center
Sun 09:54:33 AM 42.5614 -107.2531 143° Southeast 454 522 31,000 70 Climbing Denver Center
Sun 09:55:34 AM 42.4639 -107.1536 143° Southeast 457 526 31,000  Level Denver Center
Sun 09:56:35 AM 42.3628 -107.0533 144° Southeast 469 540 31,000  Level Denver Center
Sun 09:57:37 AM 42.2475 -106.9358 143° Southeast 465 535 31,000  Level Denver Center
Sun 09:58:38 AM 42.1486 -106.8378 144° Southeast 463 533 31,000  Level Denver Center
Sun 09:59:40 AM 42.0325 -106.7239 144° Southeast 464 534 31,000  Level Denver Center
Sun 10:00:41 AM 41.9344 -106.6256 143° Southeast 460 529 31,000  Level Denver Center
Sun 10:01:42 AM 41.8369 -106.5308 144° Southeast 454 522 31,000  Level Denver Center
Sun 10:02:43 AM 41.7233 -106.4186 144° Southeast 454 522 31,000  Level Denver Center
Sun 10:03:44 AM 41.6258 -106.3225 144° Southeast 455 524 31,000  Level Denver Center
Sun 10:04:46 AM 41.5283 -106.2289 144° Southeast 453 521 31,000  Level Denver Center
Sun 10:05:47 AM 41.4111 -106.1144 144° Southeast 463 533 31,000  Level Denver Center
Sun 10:06:48 AM 41.3108 -106.0169 144° Southeast 467 537 31,000  Level Denver Center
Sun 10:07:49 AM 41.1931 -105.9039 144° Southeast 469 540 31,000  Level Denver Center
Sun 10:08:51 AM 41.0925 -105.8083 144° Southeast 466 536 31,000  Level Denver Center
Sun 10:09:52 AM 40.9819 -105.7019 144° Southeast 469 540 31,000 -780 Level Denver Center
Sun 10:10:54 AM 40.8742 -105.6011 145° Southeast 470 541 29,400 -2,195 Descending Denver Center
Sun 10:11:55 AM 40.7700 -105.5011 144° Southeast 460 529 26,500 -2,852 Descending Denver Center
Sun 10:12:56 AM 40.6722 -105.4078 144° Southeast 434 499 23,600 -2,829 Descending Denver Center
Sun 10:13:58 AM 40.5750 -105.3186 145° Southeast 424 488 20,700 -2,390 Descending Denver Center
Sun 10:14:59 AM 40.4922 -105.2306 141° Southeast 376 433 18,700 -1,902 Descending Denver Center
Sun 10:16:01 AM 40.4539 -105.1000 111° Southeast 357 411 16,800 -1,561 Descending Denver Center
Sun 10:17:02 AM 40.4200 -104.9814 111° Southeast 327 376 15,500 -1,171 Descending Denver Center
Sun 10:18:04 AM 40.3925 -104.8850 111° Southeast 290 334 14,400 -1,122 Descending Denver Center
Sun 10:19:05 AM 40.3331 -104.8231 142° Southeast 273 314 13,200 -1,122 Descending Denver Center
Sun 10:20:07 AM 40.2675 -104.7706 149° Southeast 276 318 12,100 -1,258 Descending Denver Center
Sun 10:21:09 AM 40.1953 -104.7117 148° Southeast 283 326 10,600 -1,073 Descending Denver Center
Sun 10:22:10 AM 40.1442 -104.6844 158° South 267 307 9,900 -976 Descending Denver Center
Sun 10:23:12 AM 40.0681 -104.6847 180° South 225 259 8,600 -1,258 Descending Denver Center

Login

Don't have an account? Register now (free) for customized features, flight alerts, and more!